createdAt,value
2023-03-04T00:02:15.487Z,78.88
2023-03-04T00:09:29.500Z,78.86
2023-03-04T00:13:18.747Z,78.88
2023-03-04T00:55:32.032Z,78.93
2023-03-04T00:59:24.860Z,78.66
2023-03-04T01:03:14.281Z,78.68
2023-03-04T01:07:19.567Z,78.64
2023-03-04T01:11:24.138Z,78.79
2023-03-04T01:14:52.724Z,78.84
2023-03-04T01:19:05.470Z,78.81
2023-03-04T01:23:00.874Z,78.77
2023-03-04T01:27:08.166Z,78.55
2023-03-04T01:30:45.047Z,78.69
2023-03-04T01:34:57.768Z,78.66
2023-03-04T01:43:12.468Z,78.80
2023-03-04T01:47:04.822Z,78.90
2023-03-04T01:54:57.840Z,79.22
2023-03-04T01:59:08.543Z,79.28
2023-03-04T02:07:43.651Z,79.22
2023-03-04T02:11:34.873Z,79.45
2023-03-04T02:19:58.196Z,79.49
2023-03-04T02:24:04.763Z,79.49
2023-03-04T02:45:06.415Z,80.32
2023-03-04T02:48:45.822Z,80.34
2023-03-04T02:52:21.684Z,80.35
2023-03-04T02:56:13.530Z,80.40
2023-03-04T02:59:44.071Z,80.31
2023-03-04T03:02:53.855Z,80.39
2023-03-04T03:06:43.504Z,80.42
2023-03-04T03:10:27.034Z,80.38
2023-03-04T03:13:58.080Z,80.42
2023-03-04T03:17:27.604Z,80.33
2023-03-04T03:20:49.166Z,80.29
2023-03-04T03:24:02.872Z,80.22
2023-03-04T03:27:51.212Z,80.00
2023-03-04T03:32:26.253Z,79.88
2023-03-04T03:35:49.075Z,79.83
2023-03-04T03:39:37.522Z,79.98
2023-03-04T03:43:30.161Z,79.52
2023-03-04T03:47:18.579Z,79.52
2023-03-04T03:51:06.949Z,79.54
2023-03-04T03:54:17.826Z,79.45
2023-03-04T03:57:47.265Z,79.40
2023-03-04T04:01:17.104Z,79.41
2023-03-04T04:05:07.729Z,79.31
2023-03-04T04:17:32.312Z,78.94
2023-03-04T04:21:29.123Z,78.94
2023-03-04T04:25:22.648Z,78.78
2023-03-04T04:29:31.522Z,78.64
2023-03-04T04:42:31.812Z,78.47
2023-03-04T04:46:29.161Z,78.25
2023-03-04T04:50:18.720Z,78.23
2023-03-04T04:54:08.078Z,78.11
2023-03-04T04:58:21.465Z,78.00
2023-03-04T05:01:59.658Z,77.73
2023-03-04T05:05:55.165Z,77.55
2023-03-04T05:09:46.058Z,77.66
2023-03-04T05:13:19.544Z,77.45
2023-03-04T05:17:31.762Z,77.29
2023-03-04T05:21:27.790Z,77.29
2023-03-04T05:25:03.599Z,77.34
2023-03-04T05:28:31.937Z,77.51
2023-03-04T05:31:59.373Z,77.47
2023-03-04T05:35:33.405Z,77.20
2023-03-04T05:39:05.551Z,77.27
2023-03-04T05:42:53.979Z,77.16
2023-03-04T05:46:44.161Z,77.41
2023-03-04T05:50:39.141Z,77.20
2023-03-04T05:53:53.427Z,77.15
2023-03-04T05:56:43.985Z,77.21
2023-03-04T05:59:34.233Z,77.24
2023-03-04T06:02:02.047Z,77.17
2023-03-04T06:04:31.150Z,77.13
2023-03-04T06:07:28.714Z,77.20
2023-03-04T06:10:08.380Z,77.31
2023-03-04T06:12:39.303Z,77.35
2023-03-04T06:15:15.255Z,77.39
2023-03-04T06:18:13.291Z,77.58
2023-03-04T06:20:54.049Z,77.66
2023-03-04T06:23:44.048Z,77.75
2023-03-04T06:26:39.284Z,77.81
2023-03-04T06:29:35.936Z,77.73
2023-03-04T06:32:28.789Z,77.88
2023-03-04T06:35:31.180Z,77.98
2023-03-04T06:38:02.701Z,78.11
2023-03-04T06:41:02.199Z,78.06
2023-03-04T06:43:33.477Z,78.17
2023-03-04T06:46:09.535Z,78.14
2023-03-04T06:48:59.401Z,78.19
2023-03-04T06:51:31.050Z,78.24
2023-03-04T06:54:16.748Z,78.18
2023-03-04T06:56:47.038Z,78.28
2023-03-04T06:59:20.466Z,78.36
2023-03-04T07:01:52.314Z,78.44
2023-03-04T07:04:19.781Z,78.41
2023-03-04T07:06:50.204Z,78.47
2023-03-04T07:09:20.232Z,78.56
2023-03-04T07:12:01.849Z,78.77
2023-03-04T07:14:36.414Z,78.56
2023-03-04T07:17:07.272Z,78.46
2023-03-04T07:19:46.853Z,78.35
2023-03-04T07:22:15.286Z,78.40
2023-03-04T07:24:45.176Z,78.35
2023-03-04T07:27:14.485Z,78.30
2023-03-04T07:29:43.980Z,78.35
2023-03-04T07:32:33.042Z,78.33
2023-03-04T07:35:21.533Z,78.17
2023-03-04T07:37:49.882Z,78.25
2023-03-04T07:40:19.018Z,78.13
2023-03-04T07:42:52.390Z,78.01
2023-03-04T07:45:22.025Z,78.10
2023-03-04T07:47:51.207Z,78.04
2023-03-04T07:50:20.715Z,77.90
2023-03-04T07:53:00.782Z,77.99
2023-03-04T07:55:32.841Z,77.71
2023-03-04T07:58:00.984Z,77.61
2023-03-04T08:00:29.024Z,77.54
2023-03-04T08:03:00.722Z,77.53
2023-03-04T08:05:31.338Z,77.63
2023-03-04T08:08:00.625Z,77.45
2023-03-04T08:10:36.855Z,77.18
2023-03-04T08:13:08.199Z,77.01
2023-03-04T08:16:06.123Z,76.89
2023-03-04T08:19:12.739Z,77.02
2023-03-04T08:22:19.554Z,76.97
2023-03-04T08:25:17.027Z,76.90
2023-03-04T08:27:49.166Z,76.71
2023-03-04T08:30:59.592Z,76.82
2023-03-04T08:34:09.679Z,76.81
2023-03-04T08:40:18.034Z,76.63
2023-03-04T08:43:27.066Z,76.80
2023-03-04T08:46:16.889Z,76.83
2023-03-04T08:52:02.105Z,76.54
2023-03-04T08:54:49.633Z,76.56
2023-03-04T08:57:24.888Z,76.65
2023-03-04T09:00:01.082Z,76.49
2023-03-04T09:03:33.799Z,76.67
2023-03-04T09:06:04.971Z,76.42
2023-03-04T09:08:51.269Z,76.36
2023-03-04T09:11:24.562Z,76.51
2023-03-04T09:14:36.474Z,76.32
2023-03-04T09:17:26.979Z,76.16
2023-03-04T09:20:26.513Z,76.24
2023-03-04T09:22:57.551Z,76.32
2023-03-04T09:25:54.571Z,76.32
2023-03-04T09:28:24.172Z,76.03
2023-03-04T09:31:17.327Z,76.10
2023-03-04T09:33:46.841Z,76.19
2023-03-04T09:36:21.191Z,76.29
2023-03-04T09:38:51.691Z,76.16
2023-03-04T09:41:36.437Z,76.06
2023-03-04T09:45:16.720Z,76.32
2023-03-04T09:47:58.090Z,76.37
2023-03-04T09:50:27.492Z,76.37
2023-03-04T09:53:09.214Z,76.62
2023-03-04T09:55:41.064Z,76.56
2023-03-04T09:58:41.848Z,76.54
2023-03-04T10:01:21.742Z,76.63
2023-03-04T10:04:01.473Z,76.55
2023-03-04T10:06:31.330Z,76.47
2023-03-04T10:09:42.877Z,76.65
2023-03-04T10:12:18.365Z,76.63
2023-03-04T10:15:05.810Z,76.50
2023-03-04T10:17:39.944Z,76.51
2023-03-04T10:20:20.930Z,76.66
2023-03-04T10:22:54.027Z,76.44
2023-03-04T10:25:22.097Z,76.55
2023-03-04T10:28:30.774Z,76.50
2023-03-04T10:31:33.751Z,76.30
2023-03-04T10:34:04.186Z,76.23
2023-03-04T10:36:33.271Z,76.33
2023-03-04T10:39:15.682Z,76.33
2023-03-04T10:41:55.479Z,76.40
2023-03-04T10:44:49.858Z,76.76
2023-03-04T10:48:17.849Z,77.14
2023-03-04T10:50:47.568Z,77.28
2023-03-04T10:53:43.951Z,77.36
2023-03-04T11:00:31.714Z,77.72
2023-03-04T11:03:27.054Z,77.83
2023-03-04T11:06:23.763Z,78.27
2023-03-04T11:09:02.224Z,78.41
2023-03-04T11:11:43.238Z,78.76
2023-03-04T11:14:23.607Z,79.06
2023-03-04T11:17:03.225Z,78.93
2023-03-04T11:19:39.973Z,79.13
2023-03-04T11:22:08.101Z,79.46
2023-03-04T11:24:38.229Z,79.68
2023-03-04T11:27:33.625Z,79.72
2023-03-04T11:30:30.575Z,79.84
2023-03-04T11:33:10.776Z,80.01
2023-03-04T11:36:36.823Z,80.07
2023-03-04T11:39:14.255Z,80.09
2023-03-04T11:41:53.569Z,80.19
2023-03-04T11:44:26.709Z,80.11
2023-03-04T11:47:31.266Z,80.27
2023-03-04T11:50:07.597Z,80.39
2023-03-04T11:55:58.630Z,80.34
2023-03-04T11:58:59.739Z,80.38
2023-03-04T12:02:03.615Z,80.31
2023-03-04T12:04:43.755Z,80.29
2023-03-04T12:07:31.365Z,80.23
2023-03-04T12:10:40.287Z,80.29
2023-03-04T12:13:44.200Z,80.23
2023-03-04T12:16:44.613Z,80.56
2023-03-04T12:20:08.511Z,80.27
2023-03-04T12:26:17.080Z,80.61
2023-03-04T12:29:55.524Z,80.69
2023-03-04T12:32:59.986Z,80.92
2023-03-04T12:35:41.535Z,80.88
2023-03-04T12:38:32.448Z,80.92
2023-03-04T12:41:36.691Z,81.27
2023-03-04T12:44:25.210Z,80.75
2023-03-04T12:47:33.533Z,80.54
2023-03-04T12:50:22.114Z,80.27
2023-03-04T12:53:25.616Z,79.89
2023-03-04T12:55:57.988Z,79.81
2023-03-04T12:58:34.080Z,79.46
2023-03-04T13:01:39.884Z,79.08
2023-03-04T13:04:36.959Z,78.83
2023-03-04T13:07:58.907Z,78.84
2023-03-04T13:10:35.078Z,78.57
2023-03-04T13:13:03.674Z,78.52
2023-03-04T13:15:37.560Z,77.80
2023-03-04T13:18:37.378Z,77.05
2023-03-04T13:21:52.203Z,76.11
2023-03-04T13:24:52.358Z,75.82
2023-03-04T13:28:08.367Z,75.81
2023-03-04T13:30:56.097Z,75.45
2023-03-04T13:33:55.811Z,75.49
2023-03-04T13:37:07.393Z,74.77
2023-03-04T13:40:51.098Z,74.49
2023-03-04T13:43:30.859Z,76.18
2023-03-04T13:46:23.522Z,77.35
2023-03-04T13:48:50.912Z,79.13
2023-03-04T13:51:44.838Z,78.50
2023-03-04T13:54:30.670Z,78.43
2023-03-04T13:57:23.071Z,78.12
2023-03-04T13:59:55.534Z,77.94
2023-03-04T14:05:16.854Z,77.31
2023-03-04T14:07:48.671Z,76.97
2023-03-04T14:10:24.408Z,76.46
2023-03-04T14:13:00.484Z,75.73
2023-03-04T14:15:30.991Z,74.89
2023-03-04T14:18:02.756Z,74.50
2023-03-04T14:20:52.150Z,73.99
2023-03-04T14:23:35.930Z,73.47
2023-03-04T14:30:05.181Z,71.25
2023-03-04T14:32:33.287Z,69.96
2023-03-04T14:35:18.657Z,70.04
2023-03-04T14:38:06.677Z,69.53
2023-03-04T14:40:50.507Z,68.82
2023-03-04T14:43:28.820Z,68.27
2023-03-04T14:46:05.254Z,68.44
2023-03-04T14:48:34.051Z,67.52
2023-03-04T14:51:03.607Z,67.26
2023-03-04T14:53:33.314Z,64.63
2023-03-04T14:56:18.302Z,64.10
2023-03-04T14:58:57.576Z,64.02
2023-03-04T15:01:47.111Z,64.13
2023-03-04T15:04:20.930Z,63.40
2023-03-04T15:06:53.260Z,62.29
2023-03-04T15:09:24.317Z,62.70
2023-03-04T15:11:59.056Z,60.62
2023-03-04T15:14:54.175Z,59.81
2023-03-04T15:17:38.888Z,59.65
2023-03-04T15:20:12.118Z,59.50
2023-03-04T15:22:47.701Z,59.60
2023-03-04T15:25:20.289Z,60.41
2023-03-04T15:27:50.449Z,59.24
2023-03-04T15:30:26.772Z,58.17
2023-03-04T15:32:58.972Z,56.82
2023-03-04T15:35:41.049Z,56.93
2023-03-04T15:38:20.169Z,56.09
2023-03-04T15:40:49.622Z,54.25
2023-03-04T15:43:22.042Z,54.56
2023-03-04T15:45:56.971Z,54.69
2023-03-04T15:48:25.726Z,54.52
2023-03-04T15:50:59.773Z,55.14
2023-03-04T15:53:40.800Z,54.68
2023-03-04T15:56:18.808Z,54.51
2023-03-04T15:59:10.524Z,55.11
2023-03-04T16:01:38.181Z,54.76
2023-03-04T16:04:07.648Z,54.62
2023-03-04T16:06:38.527Z,54.45
2023-03-04T16:09:23.099Z,53.86
2023-03-04T16:11:53.062Z,53.86
2023-03-04T16:14:24.767Z,53.83
2023-03-04T16:16:52.724Z,53.84
2023-03-04T16:19:27.449Z,53.07
2023-03-04T16:21:54.290Z,52.43
2023-03-04T16:24:21.861Z,52.33
2023-03-04T16:26:52.442Z,51.62
2023-03-04T16:29:19.356Z,49.65
2023-03-04T16:31:46.199Z,50.31
2023-03-04T16:34:13.116Z,50.21
2023-03-04T16:36:40.110Z,48.89
2023-03-04T16:39:12.732Z,48.48
2023-03-04T16:41:41.221Z,48.95
2023-03-04T16:44:14.483Z,49.37
2023-03-04T16:46:41.738Z,48.72
2023-03-04T16:49:10.364Z,48.14
2023-03-04T16:51:43.151Z,48.34
2023-03-04T16:54:18.722Z,48.31
2023-03-04T16:56:47.330Z,47.61
2023-03-04T16:59:16.367Z,47.64
2023-03-04T17:01:44.038Z,47.99
2023-03-04T17:04:13.219Z,47.79
2023-03-04T17:06:40.645Z,47.91
2023-03-04T17:09:09.546Z,47.33
2023-03-04T17:11:36.999Z,48.02
2023-03-04T17:14:05.519Z,47.95
2023-03-04T17:16:33.257Z,47.62
2023-03-04T17:19:03.801Z,47.13
2023-03-04T17:21:31.429Z,47.82
2023-03-04T17:24:00.977Z,47.83
2023-03-04T17:26:27.830Z,48.04
2023-03-04T17:28:54.721Z,47.64
2023-03-04T17:31:22.933Z,47.86
2023-03-04T17:33:50.666Z,47.81
2023-03-04T17:36:19.150Z,47.78
2023-03-04T17:38:49.156Z,48.03
2023-03-04T17:41:19.507Z,48.16
2023-03-04T17:43:50.233Z,47.21
2023-03-04T17:46:23.536Z,47.52
2023-03-04T17:48:55.060Z,47.63
2023-03-04T17:51:30.566Z,46.96
2023-03-04T17:54:00.943Z,47.10
2023-03-04T17:56:36.277Z,46.29
2023-03-04T17:59:07.528Z,45.81
2023-03-04T18:01:40.021Z,46.89
2023-03-04T18:04:09.327Z,47.06
2023-03-04T18:06:36.868Z,46.62
2023-03-04T18:09:04.869Z,46.53
2023-03-04T18:11:34.929Z,45.73
2023-03-04T18:14:02.814Z,46.07
2023-03-04T18:16:29.883Z,46.16
2023-03-04T18:18:59.473Z,46.25
2023-03-04T18:21:30.930Z,46.13
2023-03-04T18:24:02.635Z,45.80
2023-03-04T18:26:30.516Z,45.75
2023-03-04T18:29:05.403Z,45.71
2023-03-04T18:31:37.045Z,45.20
2023-03-04T18:34:10.634Z,45.11
2023-03-04T18:36:38.408Z,44.52
2023-03-04T18:39:08.618Z,44.46
2023-03-04T18:41:42.534Z,44.64
2023-03-04T18:44:17.194Z,44.22
2023-03-04T18:46:56.724Z,44.42
2023-03-04T18:49:27.971Z,44.24
2023-03-04T18:51:58.077Z,44.68
2023-03-04T18:54:28.515Z,44.50
2023-03-04T18:57:06.694Z,44.60
2023-03-04T18:59:44.345Z,44.73
2023-03-04T19:02:47.742Z,44.52
2023-03-04T19:05:21.550Z,44.68
2023-03-04T19:08:02.023Z,44.80
2023-03-04T19:10:33.362Z,44.91
2023-03-04T19:13:04.319Z,45.10
2023-03-04T19:15:41.455Z,44.80
2023-03-04T19:18:14.692Z,44.12
2023-03-04T19:21:10.160Z,44.41
2023-03-04T19:23:37.256Z,44.53
2023-03-04T19:26:10.649Z,44.87
2023-03-04T19:28:47.410Z,44.68
2023-03-04T19:31:17.346Z,45.02
2023-03-04T19:33:44.190Z,44.54
2023-03-04T19:36:12.462Z,44.77
2023-03-04T19:38:43.425Z,45.00
2023-03-04T19:41:13.061Z,45.42
2023-03-04T19:43:47.462Z,44.85
2023-03-04T19:46:15.174Z,45.14
2023-03-04T19:48:45.200Z,45.40
2023-03-04T19:51:42.807Z,45.52
2023-03-04T19:54:40.112Z,45.48
2023-03-04T19:57:07.812Z,45.47
2023-03-04T19:59:44.722Z,45.58
2023-03-04T20:02:23.049Z,45.38
2023-03-04T20:04:59.061Z,45.44
2023-03-04T20:07:28.272Z,45.81
2023-03-04T20:10:08.449Z,45.90
2023-03-04T20:12:37.007Z,46.02
2023-03-04T20:15:15.528Z,45.71
2023-03-04T20:17:51.307Z,45.95
2023-03-04T20:20:30.235Z,45.99
2023-03-04T20:23:01.143Z,46.08
2023-03-04T20:25:33.890Z,46.04
2023-03-04T20:28:31.921Z,46.33
2023-03-04T20:31:26.407Z,46.28
2023-03-04T20:33:58.470Z,46.46
2023-03-04T20:36:28.182Z,46.61
2023-03-04T20:39:02.084Z,46.62
2023-03-04T20:41:34.363Z,46.61
2023-03-04T20:44:02.925Z,46.76
2023-03-04T20:49:38.406Z,46.98
2023-03-04T20:52:22.306Z,46.76
2023-03-04T20:54:51.763Z,46.96
2023-03-04T20:57:21.420Z,47.10
2023-03-04T20:59:49.052Z,47.27
2023-03-04T21:02:17.737Z,47.33
2023-03-04T21:04:48.681Z,47.18
2023-03-04T21:07:17.085Z,47.06
2023-03-04T21:10:05.115Z,46.92
2023-03-04T21:12:33.882Z,47.05
2023-03-04T21:15:02.451Z,47.10
2023-03-04T21:17:32.503Z,46.91
2023-03-04T21:20:16.085Z,46.81
2023-03-04T21:22:45.892Z,46.84
2023-03-04T21:25:23.370Z,46.74
2023-03-04T21:30:46.571Z,46.83
2023-03-04T21:33:40.688Z,46.85
2023-03-04T21:36:16.101Z,46.74
2023-03-04T21:38:54.475Z,46.99
2023-03-04T21:41:40.702Z,47.12
2023-03-04T21:44:28.005Z,47.02
2023-03-04T21:47:11.487Z,47.15
2023-03-04T21:49:43.951Z,47.29
2023-03-04T21:52:18.263Z,47.09
2023-03-04T21:54:49.166Z,47.26
2023-03-04T21:57:45.271Z,47.21
2023-03-04T22:00:24.272Z,47.22
2023-03-04T22:02:56.124Z,47.35
2023-03-04T22:05:52.936Z,47.35
2023-03-04T22:08:26.695Z,47.55
2023-03-04T22:10:57.222Z,47.75
2023-03-04T22:13:32.453Z,47.82
2023-03-04T22:16:04.421Z,47.92
2023-03-04T22:18:50.060Z,48.12
2023-03-04T22:21:19.401Z,48.11
2023-03-04T22:23:55.090Z,48.26
2023-03-04T22:26:36.036Z,48.40
2023-03-04T22:29:07.187Z,48.56
2023-03-04T22:32:02.290Z,48.67
2023-03-04T22:34:35.309Z,48.73
2023-03-04T22:37:04.392Z,48.70
2023-03-04T22:39:33.260Z,48.79
2023-03-04T22:42:11.224Z,48.72
2023-03-04T22:44:39.707Z,48.85
2023-03-04T22:47:07.232Z,48.79
2023-03-04T22:49:37.286Z,48.92
2023-03-04T22:52:04.285Z,48.77
2023-03-04T22:54:31.873Z,49.00
2023-03-04T22:57:00.000Z,49.09
2023-03-04T22:59:28.433Z,49.06
2023-03-04T23:01:57.219Z,49.02
2023-03-04T23:04:24.955Z,49.18
2023-03-04T23:06:53.266Z,49.33
2023-03-04T23:09:19.655Z,49.23
2023-03-04T23:11:57.075Z,49.44
2023-03-04T23:14:24.384Z,49.37
2023-03-04T23:16:53.116Z,49.42
2023-03-04T23:19:21.313Z,49.35
2023-03-04T23:21:52.601Z,49.54
2023-03-04T23:24:21.706Z,49.75
2023-03-04T23:26:52.547Z,49.84
2023-03-04T23:29:23.100Z,49.89
2023-03-04T23:32:00.131Z,49.91
2023-03-04T23:34:31.065Z,50.15
2023-03-04T23:36:58.173Z,50.19
2023-03-04T23:39:28.931Z,50.31
2023-03-04T23:41:59.634Z,50.44
2023-03-04T23:44:26.172Z,50.50
2023-03-04T23:46:53.596Z,50.75
2023-03-04T23:49:21.160Z,50.94
2023-03-04T23:51:51.018Z,51.07
2023-03-04T23:54:21.011Z,51.27
2023-03-04T23:56:47.507Z,51.51
2023-03-04T23:59:14.706Z,51.84
